sensor_id;sensor_type;location;lat;lon;timestamp;temperature;humidity
9215;DHT22;4642;51.364;6.788;2023-05-17T00:00:19;8.70;99.90
9215;DHT22;4642;51.364;6.788;2023-05-17T00:02:45;8.70;99.90
9215;DHT22;4642;51.364;6.788;2023-05-17T00:05:10;8.70;99.90
9215;DHT22;4642;51.364;6.788;2023-05-17T00:07:36;8.60;99.90
9215;DHT22;4642;51.364;6.788;2023-05-17T00:10:02;8.60;99.90
9215;DHT22;4642;51.364;6.788;2023-05-17T00:12:27;8.60;99.90
9215;DHT22;4642;51.364;6.788;2023-05-17T00:14:53;8.60;99.90
9215;DHT22;4642;51.364;6.788;2023-05-17T00:17:18;8.50;99.90
9215;DHT22;4642;51.364;6.788;2023-05-17T00:19:44;8.50;99.90
9215;DHT22;4642;51.364;6.788;2023-05-17T00:22:09;8.50;99.90
9215;DHT22;4642;51.364;6.788;2023-05-17T00:24:35;8.50;99.90
9215;DHT22;4642;51.364;6.788;2023-05-17T00:27:00;8.40;99.90
9215;DHT22;4642;51.364;6.788;2023-05-17T00:29:26;8.40;99.90
9215;DHT22;4642;51.364;6.788;2023-05-17T00:31:51;8.40;99.90
9215;DHT22;4642;51.364;6.788;2023-05-17T00:34:17;8.30;99.90
9215;DHT22;4642;51.364;6.788;2023-05-17T00:36:43;8.30;99.90
9215;DHT22;4642;51.364;6.788;2023-05-17T00:39:08;8.30;99.90
9215;DHT22;4642;51.364;6.788;2023-05-17T00:41:34;8.30;99.90
9215;DHT22;4642;51.364;6.788;2023-05-17T00:44:00;8.30;99.90
9215;DHT22;4642;51.364;6.788;2023-05-17T00:46:25;8.20;99.90
9215;DHT22;4642;51.364;6.788;2023-05-17T00:48:51;8.20;99.90
9215;DHT22;4642;51.364;6.788;2023-05-17T00:51:18;8.20;99.90
9215;DHT22;4642;51.364;6.788;2023-05-17T00:53:44;8.20;99.90
9215;DHT22;4642;51.364;6.788;2023-05-17T00:56:10;8.10;99.90
9215;DHT22;4642;51.364;6.788;2023-05-17T00:58:36;8.10;99.90
9215;DHT22;4642;51.364;6.788;2023-05-17T01:01:02;8.10;99.90
9215;DHT22;4642;51.364;6.788;2023-05-17T01:03:28;8.10;99.90
9215;DHT22;4642;51.364;6.788;2023-05-17T01:05:54;8.10;99.90
9215;DHT22;4642;51.364;6.788;2023-05-17T01:08:20;8.00;99.90
9215;DHT22;4642;51.364;6.788;2023-05-17T01:11:09;8.00;99.90
9215;DHT22;4642;51.364;6.788;2023-05-17T01:16:29;8.00;99.90
9215;DHT22;4642;51.364;6.788;2023-05-17T01:19:53;8.10;99.90
9215;DHT22;4642;51.364;6.788;2023-05-17T01:22:30;8.00;99.90
9215;DHT22;4642;51.364;6.788;2023-05-17T01:25:07;8.00;99.90
9215;DHT22;4642;51.364;6.788;2023-05-17T01:27:37;8.00;99.90
9215;DHT22;4642;51.364;6.788;2023-05-17T01:30:05;7.90;99.90
9215;DHT22;4642;51.364;6.788;2023-05-17T01:32:33;8.00;99.90
9215;DHT22;4642;51.364;6.788;2023-05-17T01:34:58;7.90;99.90
9215;DHT22;4642;51.364;6.788;2023-05-17T01:37:24;8.00;99.90
9215;DHT22;4642;51.364;6.788;2023-05-17T01:39:49;7.90;99.90
9215;DHT22;4642;51.364;6.788;2023-05-17T01:42:38;7.90;99.90
9215;DHT22;4642;51.364;6.788;2023-05-17T01:47:49;7.90;99.90
9215;DHT22;4642;51.364;6.788;2023-05-17T01:50:23;7.90;99.90
9215;DHT22;4642;51.364;6.788;2023-05-17T01:52:54;7.80;99.90
9215;DHT22;4642;51.364;6.788;2023-05-17T01:55:28;7.80;99.90
9215;DHT22;4642;51.364;6.788;2023-05-17T01:57:56;7.80;99.90
9215;DHT22;4642;51.364;6.788;2023-05-17T02:00:24;7.70;99.90
9215;DHT22;4642;51.364;6.788;2023-05-17T02:02:49;7.70;99.90
9215;DHT22;4642;51.364;6.788;2023-05-17T02:05:15;7.80;99.90
9215;DHT22;4642;51.364;6.788;2023-05-17T02:07:41;7.70;99.90
9215;DHT22;4642;51.364;6.788;2023-05-17T02:10:07;7.70;99.90
9215;DHT22;4642;51.364;6.788;2023-05-17T02:12:32;7.70;99.90
9215;DHT22;4642;51.364;6.788;2023-05-17T02:14:58;7.60;99.90
9215;DHT22;4642;51.364;6.788;2023-05-17T02:17:23;7.60;99.90
9215;DHT22;4642;51.364;6.788;2023-05-17T02:19:49;7.60;99.90
9215;DHT22;4642;51.364;6.788;2023-05-17T02:22:15;7.60;99.90
9215;DHT22;4642;51.364;6.788;2023-05-17T02:24:40;7.60;99.90
9215;DHT22;4642;51.364;6.788;2023-05-17T02:27:06;7.50;99.90
9215;DHT22;4642;51.364;6.788;2023-05-17T02:29:32;7.50;99.90
9215;DHT22;4642;51.364;6.788;2023-05-17T02:31:57;7.50;99.90
9215;DHT22;4642;51.364;6.788;2023-05-17T02:34:23;7.50;99.90
9215;DHT22;4642;51.364;6.788;2023-05-17T02:36:48;7.40;99.90
9215;DHT22;4642;51.364;6.788;2023-05-17T02:39:14;7.40;99.90
9215;DHT22;4642;51.364;6.788;2023-05-17T02:41:40;7.40;99.90
9215;DHT22;4642;51.364;6.788;2023-05-17T02:44:05;7.30;99.90
9215;DHT22;4642;51.364;6.788;2023-05-17T02:46:31;7.30;99.90
9215;DHT22;4642;51.364;6.788;2023-05-17T02:48:56;7.30;99.90
9215;DHT22;4642;51.364;6.788;2023-05-17T02:51:22;7.20;99.90
9215;DHT22;4642;51.364;6.788;2023-05-17T02:53:47;7.20;99.90
9215;DHT22;4642;51.364;6.788;2023-05-17T02:56:13;7.20;99.90
9215;DHT22;4642;51.364;6.788;2023-05-17T02:58:39;7.20;99.90
9215;DHT22;4642;51.364;6.788;2023-05-17T03:01:04;7.10;99.90
9215;DHT22;4642;51.364;6.788;2023-05-17T03:03:30;7.10;99.90
9215;DHT22;4642;51.364;6.788;2023-05-17T03:06:02;7.10;99.90
9215;DHT22;4642;51.364;6.788;2023-05-17T03:08:29;7.10;99.90
9215;DHT22;4642;51.364;6.788;2023-05-17T03:10:55;7.10;99.90
9215;DHT22;4642;51.364;6.788;2023-05-17T03:13:21;7.00;99.90
9215;DHT22;4642;51.364;6.788;2023-05-17T03:15:46;7.00;99.90
9215;DHT22;4642;51.364;6.788;2023-05-17T03:18:12;7.00;99.90
9215;DHT22;4642;51.364;6.788;2023-05-17T03:20:37;7.00;99.90
9215;DHT22;4642;51.364;6.788;2023-05-17T03:23:03;6.90;99.90
9215;DHT22;4642;51.364;6.788;2023-05-17T03:25:28;7.00;99.90
9215;DHT22;4642;51.364;6.788;2023-05-17T03:27:54;7.00;99.90
9215;DHT22;4642;51.364;6.788;2023-05-17T03:30:19;6.90;99.90
9215;DHT22;4642;51.364;6.788;2023-05-17T03:32:45;6.90;99.90
9215;DHT22;4642;51.364;6.788;2023-05-17T03:35:10;6.90;99.90
9215;DHT22;4642;51.364;6.788;2023-05-17T03:37:36;6.90;99.90
9215;DHT22;4642;51.364;6.788;2023-05-17T03:40:02;6.90;99.90
9215;DHT22;4642;51.364;6.788;2023-05-17T03:42:28;6.90;99.90
9215;DHT22;4642;51.364;6.788;2023-05-17T03:44:53;7.00;99.90
9215;DHT22;4642;51.364;6.788;2023-05-17T03:47:19;7.00;99.90
9215;DHT22;4642;51.364;6.788;2023-05-17T03:49:48;7.00;99.90
9215;DHT22;4642;51.364;6.788;2023-05-17T03:52:13;7.10;99.90
9215;DHT22;4642;51.364;6.788;2023-05-17T03:54:39;7.10;99.90
9215;DHT22;4642;51.364;6.788;2023-05-17T03:57:04;7.10;99.90
9215;DHT22;4642;51.364;6.788;2023-05-17T03:59:30;7.20;99.90
9215;DHT22;4642;51.364;6.788;2023-05-17T04:01:56;7.20;99.90
9215;DHT22;4642;51.364;6.788;2023-05-17T04:04:21;7.30;99.90
9215;DHT22;4642;51.364;6.788;2023-05-17T04:06:47;7.40;99.90
9215;DHT22;4642;51.364;6.788;2023-05-17T04:09:12;7.40;99.90
9215;DHT22;4642;51.364;6.788;2023-05-17T04:11:40;7.50;99.90
9215;DHT22;4642;51.364;6.788;2023-05-17T04:14:06;7.50;99.90
9215;DHT22;4642;51.364;6.788;2023-05-17T04:16:31;7.60;99.90
9215;DHT22;4642;51.364;6.788;2023-05-17T04:18:59;7.70;99.90
9215;DHT22;4642;51.364;6.788;2023-05-17T04:21:24;7.80;99.90
9215;DHT22;4642;51.364;6.788;2023-05-17T04:23:50;7.80;99.90
9215;DHT22;4642;51.364;6.788;2023-05-17T04:26:16;7.90;99.90
9215;DHT22;4642;51.364;6.788;2023-05-17T04:28:42;7.90;99.90
9215;DHT22;4642;51.364;6.788;2023-05-17T04:31:07;7.90;99.90
9215;DHT22;4642;51.364;6.788;2023-05-17T04:33:34;7.90;99.90
9215;DHT22;4642;51.364;6.788;2023-05-17T04:35:59;8.00;99.90
9215;DHT22;4642;51.364;6.788;2023-05-17T04:38:25;8.00;99.90
9215;DHT22;4642;51.364;6.788;2023-05-17T04:40:50;8.10;99.90
9215;DHT22;4642;51.364;6.788;2023-05-17T04:43:16;8.10;99.90
9215;DHT22;4642;51.364;6.788;2023-05-17T04:45:42;8.20;99.90
9215;DHT22;4642;51.364;6.788;2023-05-17T04:48:08;8.30;99.90
9215;DHT22;4642;51.364;6.788;2023-05-17T04:50:34;8.30;99.90
9215;DHT22;4642;51.364;6.788;2023-05-17T04:52:59;8.40;99.90
9215;DHT22;4642;51.364;6.788;2023-05-17T04:55:25;8.40;99.90
9215;DHT22;4642;51.364;6.788;2023-05-17T04:57:51;8.40;99.90
9215;DHT22;4642;51.364;6.788;2023-05-17T05:00:16;8.40;99.90
9215;DHT22;4642;51.364;6.788;2023-05-17T05:02:43;8.40;99.90
9215;DHT22;4642;51.364;6.788;2023-05-17T05:05:10;8.50;99.90
9215;DHT22;4642;51.364;6.788;2023-05-17T05:07:35;8.50;99.90
9215;DHT22;4642;51.364;6.788;2023-05-17T05:10:02;8.50;99.90
9215;DHT22;4642;51.364;6.788;2023-05-17T05:12:28;8.50;99.90
9215;DHT22;4642;51.364;6.788;2023-05-17T05:14:53;8.60;99.90
9215;DHT22;4642;51.364;6.788;2023-05-17T05:17:19;8.60;99.90
9215;DHT22;4642;51.364;6.788;2023-05-17T05:19:44;8.60;99.90
9215;DHT22;4642;51.364;6.788;2023-05-17T05:22:10;8.70;99.90
9215;DHT22;4642;51.364;6.788;2023-05-17T05:24:36;8.70;99.90
9215;DHT22;4642;51.364;6.788;2023-05-17T05:27:01;8.80;99.90
9215;DHT22;4642;51.364;6.788;2023-05-17T05:29:27;8.80;99.90
9215;DHT22;4642;51.364;6.788;2023-05-17T05:31:53;8.90;99.90
9215;DHT22;4642;51.364;6.788;2023-05-17T05:34:18;8.90;99.90
9215;DHT22;4642;51.364;6.788;2023-05-17T05:36:44;9.00;99.90
9215;DHT22;4642;51.364;6.788;2023-05-17T05:39:10;9.10;99.90
9215;DHT22;4642;51.364;6.788;2023-05-17T05:41:36;9.10;99.90
9215;DHT22;4642;51.364;6.788;2023-05-17T05:44:02;9.10;99.90
9215;DHT22;4642;51.364;6.788;2023-05-17T05:46:28;9.20;99.90
9215;DHT22;4642;51.364;6.788;2023-05-17T05:48:53;9.30;99.90
9215;DHT22;4642;51.364;6.788;2023-05-17T05:51:19;9.20;99.90
9215;DHT22;4642;51.364;6.788;2023-05-17T05:53:44;9.30;99.90
9215;DHT22;4642;51.364;6.788;2023-05-17T05:56:10;9.40;99.90
9215;DHT22;4642;51.364;6.788;2023-05-17T05:58:35;9.40;99.90
9215;DHT22;4642;51.364;6.788;2023-05-17T06:01:01;9.40;99.90
9215;DHT22;4642;51.364;6.788;2023-05-17T06:03:27;9.50;99.90
9215;DHT22;4642;51.364;6.788;2023-05-17T06:05:52;9.50;99.90
9215;DHT22;4642;51.364;6.788;2023-05-17T06:08:18;9.60;99.90
9215;DHT22;4642;51.364;6.788;2023-05-17T06:10:45;9.60;99.90
9215;DHT22;4642;51.364;6.788;2023-05-17T06:13:10;9.60;99.90
9215;DHT22;4642;51.364;6.788;2023-05-17T06:15:36;9.70;99.90
9215;DHT22;4642;51.364;6.788;2023-05-17T06:18:02;9.70;99.90
9215;DHT22;4642;51.364;6.788;2023-05-17T06:20:27;9.80;99.90
9215;DHT22;4642;51.364;6.788;2023-05-17T06:22:53;9.90;99.90
9215;DHT22;4642;51.364;6.788;2023-05-17T06:25:18;10.00;99.90
9215;DHT22;4642;51.364;6.788;2023-05-17T06:27:44;10.00;99.90
9215;DHT22;4642;51.364;6.788;2023-05-17T06:30:10;10.10;99.90
9215;DHT22;4642;51.364;6.788;2023-05-17T06:32:36;10.20;99.90
9215;DHT22;4642;51.364;6.788;2023-05-17T06:35:02;10.10;99.90
9215;DHT22;4642;51.364;6.788;2023-05-17T06:37:27;10.20;1.00
9215;DHT22;4642;51.364;6.788;2023-05-17T06:40:01;10.20;21.80
9215;DHT22;4642;51.364;6.788;2023-05-17T06:42:27;10.30;99.90
9215;DHT22;4642;51.364;6.788;2023-05-17T06:44:52;10.30;99.90
9215;DHT22;4642;51.364;6.788;2023-05-17T06:47:18;10.40;99.90
9215;DHT22;4642;51.364;6.788;2023-05-17T06:49:44;10.50;99.90
9215;DHT22;4642;51.364;6.788;2023-05-17T06:52:09;10.50;99.90
9215;DHT22;4642;51.364;6.788;2023-05-17T06:54:36;10.50;99.90
9215;DHT22;4642;51.364;6.788;2023-05-17T06:57:01;10.50;99.90
9215;DHT22;4642;51.364;6.788;2023-05-17T06:59:27;10.60;99.90
9215;DHT22;4642;51.364;6.788;2023-05-17T07:01:53;10.60;99.90
9215;DHT22;4642;51.364;6.788;2023-05-17T07:04:19;10.70;99.90
9215;DHT22;4642;51.364;6.788;2023-05-17T07:06:44;10.80;99.90
9215;DHT22;4642;51.364;6.788;2023-05-17T07:09:11;10.80;99.90
9215;DHT22;4642;51.364;6.788;2023-05-17T07:11:36;10.90;99.90
9215;DHT22;4642;51.364;6.788;2023-05-17T07:14:02;10.90;99.90
9215;DHT22;4642;51.364;6.788;2023-05-17T07:16:27;11.00;99.90
9215;DHT22;4642;51.364;6.788;2023-05-17T07:18:53;11.00;99.90
9215;DHT22;4642;51.364;6.788;2023-05-17T07:21:18;11.00;14.70
9215;DHT22;4642;51.364;6.788;2023-05-17T07:23:44;11.00;99.80
9215;DHT22;4642;51.364;6.788;2023-05-17T07:26:09;11.00;99.90
9215;DHT22;4642;51.364;6.788;2023-05-17T07:28:35;11.00;99.90
9215;DHT22;4642;51.364;6.788;2023-05-17T07:31:00;11.10;99.90
9215;DHT22;4642;51.364;6.788;2023-05-17T07:33:26;11.10;99.90
9215;DHT22;4642;51.364;6.788;2023-05-17T07:35:52;11.20;99.90
9215;DHT22;4642;51.364;6.788;2023-05-17T07:38:18;11.30;99.90
9215;DHT22;4642;51.364;6.788;2023-05-17T07:40:43;11.40;99.90
9215;DHT22;4642;51.364;6.788;2023-05-17T07:43:09;11.50;99.90
9215;DHT22;4642;51.364;6.788;2023-05-17T07:45:34;11.50;1.00
9215;DHT22;4642;51.364;6.788;2023-05-17T07:48:00;11.70;75.90
9215;DHT22;4642;51.364;6.788;2023-05-17T07:50:25;11.80;99.90
9215;DHT22;4642;51.364;6.788;2023-05-17T07:52:52;11.80;1.00
9215;DHT22;4642;51.364;6.788;2023-05-17T07:55:17;11.80;1.00
9215;DHT22;4642;51.364;6.788;2023-05-17T07:57:44;11.90;1.00
9215;DHT22;4642;51.364;6.788;2023-05-17T08:00:11;11.90;1.00
9215;DHT22;4642;51.364;6.788;2023-05-17T08:02:38;11.80;1.00
9215;DHT22;4642;51.364;6.788;2023-05-17T08:05:04;11.80;1.00
9215;DHT22;4642;51.364;6.788;2023-05-17T08:07:30;11.80;1.00
9215;DHT22;4642;51.364;6.788;2023-05-17T08:09:55;11.80;1.00
9215;DHT22;4642;51.364;6.788;2023-05-17T08:12:21;11.80;1.00
9215;DHT22;4642;51.364;6.788;2023-05-17T08:14:46;11.90;1.00
9215;DHT22;4642;51.364;6.788;2023-05-17T08:17:12;11.90;1.00
9215;DHT22;4642;51.364;6.788;2023-05-17T08:19:37;12.10;1.00
9215;DHT22;4642;51.364;6.788;2023-05-17T08:22:03;12.10;1.00
9215;DHT22;4642;51.364;6.788;2023-05-17T08:24:29;12.30;1.00
9215;DHT22;4642;51.364;6.788;2023-05-17T08:26:54;12.40;1.00
9215;DHT22;4642;51.364;6.788;2023-05-17T08:29:20;12.50;1.00
9215;DHT22;4642;51.364;6.788;2023-05-17T08:31:46;12.60;1.00
9215;DHT22;4642;51.364;6.788;2023-05-17T08:34:12;12.80;99.90
9215;DHT22;4642;51.364;6.788;2023-05-17T08:36:37;12.90;1.00
9215;DHT22;4642;51.364;6.788;2023-05-17T08:39:03;12.90;1.00
9215;DHT22;4642;51.364;6.788;2023-05-17T08:41:29;13.00;1.00
9215;DHT22;4642;51.364;6.788;2023-05-17T08:43:55;13.00;1.00
9215;DHT22;4642;51.364;6.788;2023-05-17T08:46:22;13.10;1.00
9215;DHT22;4642;51.364;6.788;2023-05-17T08:48:51;13.10;1.00
9215;DHT22;4642;51.364;6.788;2023-05-17T08:51:18;13.10;1.00
9215;DHT22;4642;51.364;6.788;2023-05-17T08:53:45;13.00;1.00
9215;DHT22;4642;51.364;6.788;2023-05-17T08:56:13;13.10;1.00
9215;DHT22;4642;51.364;6.788;2023-05-17T08:58:42;13.10;99.90
9215;DHT22;4642;51.364;6.788;2023-05-17T09:01:08;13.30;99.90
9215;DHT22;4642;51.364;6.788;2023-05-17T09:03:34;13.30;99.90
9215;DHT22;4642;51.364;6.788;2023-05-17T09:06:01;13.50;99.90
9215;DHT22;4642;51.364;6.788;2023-05-17T09:08:27;13.50;99.90
9215;DHT22;4642;51.364;6.788;2023-05-17T09:10:54;13.50;99.90
9215;DHT22;4642;51.364;6.788;2023-05-17T09:13:21;13.40;99.90
9215;DHT22;4642;51.364;6.788;2023-05-17T09:15:47;13.20;99.90
9215;DHT22;4642;51.364;6.788;2023-05-17T09:18:16;13.10;99.90
9215;DHT22;4642;51.364;6.788;2023-05-17T09:20:42;13.00;99.90
9215;DHT22;4642;51.364;6.788;2023-05-17T09:23:14;13.00;1.00
9215;DHT22;4642;51.364;6.788;2023-05-17T09:25:47;12.90;1.00
9215;DHT22;4642;51.364;6.788;2023-05-17T09:28:13;12.80;1.00
9215;DHT22;4642;51.364;6.788;2023-05-17T09:30:39;12.80;1.00
9215;DHT22;4642;51.364;6.788;2023-05-17T09:33:07;12.80;1.00
9215;DHT22;4642;51.364;6.788;2023-05-17T09:35:34;12.90;1.00
9215;DHT22;4642;51.364;6.788;2023-05-17T09:38:08;13.00;1.00
9215;DHT22;4642;51.364;6.788;2023-05-17T09:40:44;13.10;1.00
9215;DHT22;4642;51.364;6.788;2023-05-17T09:43:13;13.10;99.90
9215;DHT22;4642;51.364;6.788;2023-05-17T09:45:40;13.20;99.90
9215;DHT22;4642;51.364;6.788;2023-05-17T09:48:14;13.30;99.90
9215;DHT22;4642;51.364;6.788;2023-05-17T09:53:29;13.20;1.00
9215;DHT22;4642;51.364;6.788;2023-05-17T09:56:00;13.00;1.00
9215;DHT22;4642;51.364;6.788;2023-05-17T09:58:26;13.00;99.90
9215;DHT22;4642;51.364;6.788;2023-05-17T10:01:00;13.10;99.90
9215;DHT22;4642;51.364;6.788;2023-05-17T10:03:34;13.20;99.90
9215;DHT22;4642;51.364;6.788;2023-05-17T10:06:06;13.30;76.70
9215;DHT22;4642;51.364;6.788;2023-05-17T10:08:33;13.40;1.00
9215;DHT22;4642;51.364;6.788;2023-05-17T10:11:02;13.50;22.10
9215;DHT22;4642;51.364;6.788;2023-05-17T10:13:34;13.50;21.40
9215;DHT22;4642;51.364;6.788;2023-05-17T10:16:01;13.50;77.80
9215;DHT22;4642;51.364;6.788;2023-05-17T10:18:27;13.60;99.90
9215;DHT22;4642;51.364;6.788;2023-05-17T10:20:54;13.70;99.90
9215;DHT22;4642;51.364;6.788;2023-05-17T10:23:20;13.90;91.60
9215;DHT22;4642;51.364;6.788;2023-05-17T10:25:47;13.90;99.90
9215;DHT22;4642;51.364;6.788;2023-05-17T10:28:16;14.10;99.90
9215;DHT22;4642;51.364;6.788;2023-05-17T10:30:42;14.10;99.90
9215;DHT22;4642;51.364;6.788;2023-05-17T10:33:09;14.10;99.90
9215;DHT22;4642;51.364;6.788;2023-05-17T10:35:38;14.20;99.90
9215;DHT22;4642;51.364;6.788;2023-05-17T10:38:05;14.20;50.80
9215;DHT22;4642;51.364;6.788;2023-05-17T10:40:31;14.00;1.00
9215;DHT22;4642;51.364;6.788;2023-05-17T10:42:58;14.00;99.90
9215;DHT22;4642;51.364;6.788;2023-05-17T10:45:24;14.10;99.90
9215;DHT22;4642;51.364;6.788;2023-05-17T10:47:51;14.10;99.90
9215;DHT22;4642;51.364;6.788;2023-05-17T10:50:24;14.00;1.00
9215;DHT22;4642;51.364;6.788;2023-05-17T10:52:50;13.80;1.00
9215;DHT22;4642;51.364;6.788;2023-05-17T10:58:38;13.90;99.90
9215;DHT22;4642;51.364;6.788;2023-05-17T11:01:04;13.80;17.60
9215;DHT22;4642;51.364;6.788;2023-05-17T11:03:31;13.70;99.90
9215;DHT22;4642;51.364;6.788;2023-05-17T11:06:16;13.80;99.90
9215;DHT22;4642;51.364;6.788;2023-05-17T11:08:44;13.80;99.90
9215;DHT22;4642;51.364;6.788;2023-05-17T11:11:18;13.90;1.00
9215;DHT22;4642;51.364;6.788;2023-05-17T11:13:51;14.00;36.20
9215;DHT22;4642;51.364;6.788;2023-05-17T11:16:26;13.90;1.00
9215;DHT22;4642;51.364;6.788;2023-05-17T11:18:54;14.00;1.00
9215;DHT22;4642;51.364;6.788;2023-05-17T11:21:21;13.90;1.00
9215;DHT22;4642;51.364;6.788;2023-05-17T11:23:48;14.00;1.00
9215;DHT22;4642;51.364;6.788;2023-05-17T11:26:33;14.10;1.00
9215;DHT22;4642;51.364;6.788;2023-05-17T11:29:06;14.20;1.00
9215;DHT22;4642;51.364;6.788;2023-05-17T11:31:34;14.40;1.00
9215;DHT22;4642;51.364;6.788;2023-05-17T11:34:03;14.40;1.00
9215;DHT22;4642;51.364;6.788;2023-05-17T11:36:29;14.50;1.00
9215;DHT22;4642;51.364;6.788;2023-05-17T11:39:12;14.40;99.90
9215;DHT22;4642;51.364;6.788;2023-05-17T11:41:39;14.50;1.00
9215;DHT22;4642;51.364;6.788;2023-05-17T11:44:12;14.30;1.00
9215;DHT22;4642;51.364;6.788;2023-05-17T11:46:38;14.50;1.00
9215;DHT22;4642;51.364;6.788;2023-05-17T11:49:07;14.30;1.00
9215;DHT22;4642;51.364;6.788;2023-05-17T11:51:33;14.20;1.00
9215;DHT22;4642;51.364;6.788;2023-05-17T11:53:59;14.20;1.00
9215;DHT22;4642;51.364;6.788;2023-05-17T11:56:33;14.20;1.00
9215;DHT22;4642;51.364;6.788;2023-05-17T11:58:59;14.30;99.90
9215;DHT22;4642;51.364;6.788;2023-05-17T12:01:25;14.50;1.00
9215;DHT22;4642;51.364;6.788;2023-05-17T12:03:56;14.60;1.00
9215;DHT22;4642;51.364;6.788;2023-05-17T12:06:25;14.60;1.00
9215;DHT22;4642;51.364;6.788;2023-05-17T12:08:53;14.60;1.00
9215;DHT22;4642;51.364;6.788;2023-05-17T12:11:19;14.70;1.00
9215;DHT22;4642;51.364;6.788;2023-05-17T12:13:46;14.80;1.00
9215;DHT22;4642;51.364;6.788;2023-05-17T12:16:14;14.80;1.00
9215;DHT22;4642;51.364;6.788;2023-05-17T12:18:41;15.00;99.90
9215;DHT22;4642;51.364;6.788;2023-05-17T12:21:08;14.90;99.90
9215;DHT22;4642;51.364;6.788;2023-05-17T12:23:36;15.00;1.00
9215;DHT22;4642;51.364;6.788;2023-05-17T12:26:12;15.00;99.90
9215;DHT22;4642;51.364;6.788;2023-05-17T12:28:42;15.00;1.00
9215;DHT22;4642;51.364;6.788;2023-05-17T12:31:16;15.00;1.00
9215;DHT22;4642;51.364;6.788;2023-05-17T12:33:43;14.90;1.00
9215;DHT22;4642;51.364;6.788;2023-05-17T12:36:10;15.10;1.00
9215;DHT22;4642;51.364;6.788;2023-05-17T12:38:38;15.00;99.90
9215;DHT22;4642;51.364;6.788;2023-05-17T12:41:06;15.10;99.90
9215;DHT22;4642;51.364;6.788;2023-05-17T12:43:33;15.10;99.90
9215;DHT22;4642;51.364;6.788;2023-05-17T12:46:07;15.10;1.00
9215;DHT22;4642;51.364;6.788;2023-05-17T12:48:34;15.10;99.90
9215;DHT22;4642;51.364;6.788;2023-05-17T12:51:09;15.20;99.90
9215;DHT22;4642;51.364;6.788;2023-05-17T12:56:04;15.20;1.00
9215;DHT22;4642;51.364;6.788;2023-05-17T12:58:30;15.30;99.90
9215;DHT22;4642;51.364;6.788;2023-05-17T13:01:01;15.40;99.90
9215;DHT22;4642;51.364;6.788;2023-05-17T13:03:27;15.30;1.00
9215;DHT22;4642;51.364;6.788;2023-05-17T13:06:04;15.30;1.00
9215;DHT22;4642;51.364;6.788;2023-05-17T13:08:31;15.20;1.00
9215;DHT22;4642;51.364;6.788;2023-05-17T13:11:12;15.20;1.00
9215;DHT22;4642;51.364;6.788;2023-05-17T13:13:38;15.30;99.90
9215;DHT22;4642;51.364;6.788;2023-05-17T13:16:04;15.40;99.90
9215;DHT22;4642;51.364;6.788;2023-05-17T13:18:30;15.30;99.90
9215;DHT22;4642;51.364;6.788;2023-05-17T13:21:00;15.30;99.90
9215;DHT22;4642;51.364;6.788;2023-05-17T13:23:26;15.20;1.00
9215;DHT22;4642;51.364;6.788;2023-05-17T13:25:51;15.10;99.90
9215;DHT22;4642;51.364;6.788;2023-05-17T13:28:18;15.00;99.90
9215;DHT22;4642;51.364;6.788;2023-05-17T13:30:43;15.00;99.90
9215;DHT22;4642;51.364;6.788;2023-05-17T13:33:14;15.10;1.00
9215;DHT22;4642;51.364;6.788;2023-05-17T13:35:40;15.30;1.00
9215;DHT22;4642;51.364;6.788;2023-05-17T13:38:05;15.50;99.90
9215;DHT22;4642;51.364;6.788;2023-05-17T13:40:31;15.80;1.00
9215;DHT22;4642;51.364;6.788;2023-05-17T13:42:56;15.90;99.90
9215;DHT22;4642;51.364;6.788;2023-05-17T13:45:22;16.10;1.00
9215;DHT22;4642;51.364;6.788;2023-05-17T13:47:47;16.10;1.00
9215;DHT22;4642;51.364;6.788;2023-05-17T13:50:13;16.00;89.50
9215;DHT22;4642;51.364;6.788;2023-05-17T13:52:41;15.70;1.00
9215;DHT22;4642;51.364;6.788;2023-05-17T13:55:08;15.80;1.00
9215;DHT22;4642;51.364;6.788;2023-05-17T13:57:33;15.80;1.00
9215;DHT22;4642;51.364;6.788;2023-05-17T13:59:59;15.90;99.90
9215;DHT22;4642;51.364;6.788;2023-05-17T14:02:24;16.20;11.30
9215;DHT22;4642;51.364;6.788;2023-05-17T14:04:50;16.20;99.90
9215;DHT22;4642;51.364;6.788;2023-05-17T14:07:15;16.40;1.00
9215;DHT22;4642;51.364;6.788;2023-05-17T14:09:41;16.50;1.00
9215;DHT22;4642;51.364;6.788;2023-05-17T14:12:06;16.70;1.00
9215;DHT22;4642;51.364;6.788;2023-05-17T14:14:32;16.80;83.90
9215;DHT22;4642;51.364;6.788;2023-05-17T14:16:58;16.80;99.90
9215;DHT22;4642;51.364;6.788;2023-05-17T14:19:23;17.00;51.90
9215;DHT22;4642;51.364;6.788;2023-05-17T14:21:49;17.10;1.00
9215;DHT22;4642;51.364;6.788;2023-05-17T14:24:15;17.20;99.90
9215;DHT22;4642;51.364;6.788;2023-05-17T14:26:40;17.10;38.00
9215;DHT22;4642;51.364;6.788;2023-05-17T14:29:06;17.30;99.90
9215;DHT22;4642;51.364;6.788;2023-05-17T14:34:53;17.40;99.90
9215;DHT22;4642;51.364;6.788;2023-05-17T14:37:19;17.40;2.60
9215;DHT22;4642;51.364;6.788;2023-05-17T14:39:46;17.70;99.90
9215;DHT22;4642;51.364;6.788;2023-05-17T14:42:12;17.90;51.60
9215;DHT22;4642;51.364;6.788;2023-05-17T14:44:37;18.00;25.70
9215;DHT22;4642;51.364;6.788;2023-05-17T14:47:06;17.80;99.90
9215;DHT22;4642;51.364;6.788;2023-05-17T14:49:31;17.80;1.00
9215;DHT22;4642;51.364;6.788;2023-05-17T14:51:57;18.00;1.00
9215;DHT22;4642;51.364;6.788;2023-05-17T14:54:23;18.20;99.90
9215;DHT22;4642;51.364;6.788;2023-05-17T14:56:50;18.30;99.90
9215;DHT22;4642;51.364;6.788;2023-05-17T14:59:16;18.10;1.00
9215;DHT22;4642;51.364;6.788;2023-05-17T15:01:42;18.10;1.00
9215;DHT22;4642;51.364;6.788;2023-05-17T15:04:07;18.20;1.00
9215;DHT22;4642;51.364;6.788;2023-05-17T15:06:34;18.30;1.00
9215;DHT22;4642;51.364;6.788;2023-05-17T15:09:00;18.20;1.00
9215;DHT22;4642;51.364;6.788;2023-05-17T15:11:28;18.10;99.90
9215;DHT22;4642;51.364;6.788;2023-05-17T15:13:54;18.20;99.90
9215;DHT22;4642;51.364;6.788;2023-05-17T15:16:20;18.10;99.90
9215;DHT22;4642;51.364;6.788;2023-05-17T15:18:46;18.00;99.90
9215;DHT22;4642;51.364;6.788;2023-05-17T15:21:11;18.00;99.90
9215;DHT22;4642;51.364;6.788;2023-05-17T15:23:37;18.00;99.90
9215;DHT22;4642;51.364;6.788;2023-05-17T15:26:03;18.10;99.90
9215;DHT22;4642;51.364;6.788;2023-05-17T15:28:29;18.10;1.00
9215;DHT22;4642;51.364;6.788;2023-05-17T15:30:59;18.10;1.00
9215;DHT22;4642;51.364;6.788;2023-05-17T15:33:25;18.00;1.00
9215;DHT22;4642;51.364;6.788;2023-05-17T15:35:51;18.00;1.00
9215;DHT22;4642;51.364;6.788;2023-05-17T15:38:18;18.30;99.90
9215;DHT22;4642;51.364;6.788;2023-05-17T15:40:43;18.50;1.00
9215;DHT22;4642;51.364;6.788;2023-05-17T15:43:09;18.50;99.90
9215;DHT22;4642;51.364;6.788;2023-05-17T15:45:34;18.20;99.90
9215;DHT22;4642;51.364;6.788;2023-05-17T15:48:00;18.20;99.90
9215;DHT22;4642;51.364;6.788;2023-05-17T15:50:26;18.20;99.90
9215;DHT22;4642;51.364;6.788;2023-05-17T15:52:52;18.20;1.00
9215;DHT22;4642;51.364;6.788;2023-05-17T15:55:18;18.00;1.00
9215;DHT22;4642;51.364;6.788;2023-05-17T15:57:43;18.00;1.00
9215;DHT22;4642;51.364;6.788;2023-05-17T16:00:11;17.80;99.90
9215;DHT22;4642;51.364;6.788;2023-05-17T16:02:36;17.90;99.90
9215;DHT22;4642;51.364;6.788;2023-05-17T16:05:02;18.00;99.90
9215;DHT22;4642;51.364;6.788;2023-05-17T16:07:27;18.20;99.90
9215;DHT22;4642;51.364;6.788;2023-05-17T16:09:53;18.30;99.90
9215;DHT22;4642;51.364;6.788;2023-05-17T16:12:18;18.20;99.90
9215;DHT22;4642;51.364;6.788;2023-05-17T16:14:44;18.10;99.90
9215;DHT22;4642;51.364;6.788;2023-05-17T16:17:10;18.00;1.00
9215;DHT22;4642;51.364;6.788;2023-05-17T16:19:35;17.60;99.90
9215;DHT22;4642;51.364;6.788;2023-05-17T16:22:01;17.50;99.90
9215;DHT22;4642;51.364;6.788;2023-05-17T16:24:26;17.10;1.00
9215;DHT22;4642;51.364;6.788;2023-05-17T16:26:53;17.10;1.00